createdAt,value
2023-04-23T00:09:59.975Z,57.8
2023-04-23T00:25:09.531Z,58
2023-04-23T00:40:18.938Z,58.3
2023-04-23T00:55:28.496Z,58.5
2023-04-23T01:10:37.481Z,59.8
2023-04-23T01:25:46.225Z,61.3
2023-04-23T01:40:55.666Z,61.8
2023-04-23T01:56:06.911Z,62.1
2023-04-23T02:11:16.643Z,62.5
2023-04-23T02:26:26.877Z,62.6
2023-04-23T02:41:36.436Z,62.8
2023-04-23T02:56:46.982Z,62.9
2023-04-23T03:11:56.311Z,63
2023-04-23T03:27:08.557Z,63.2
2023-04-23T03:42:18.303Z,63.4
2023-04-23T03:57:42.371Z,64.1
2023-04-23T04:12:52.155Z,64.4
2023-04-23T04:28:01.984Z,64.5
2023-04-23T04:43:12.153Z,64.8
2023-04-23T04:58:21.739Z,64.7
2023-04-23T05:13:30.971Z,64.8
2023-04-23T05:28:40.898Z,64.6
2023-04-23T05:43:50.214Z,64.7
2023-04-23T05:58:59.557Z,64.7
2023-04-23T06:14:08.396Z,64.7
2023-04-23T06:29:17.535Z,64.4
2023-04-23T06:44:27.286Z,64.3
2023-04-23T06:59:37.866Z,64
2023-04-23T07:14:48.102Z,63.7
2023-04-23T07:29:58.110Z,63.5
2023-04-23T07:45:08.998Z,63.4
2023-04-23T08:00:18.915Z,63.4
2023-04-23T08:15:28.587Z,63.2
2023-04-23T08:30:38.251Z,63
2023-04-23T08:45:47.997Z,62.7
2023-04-23T09:00:59.265Z,62.5
2023-04-23T09:16:09.246Z,62.2
2023-04-23T09:31:19.389Z,61.7
2023-04-23T09:46:33.081Z,61.2
2023-04-23T10:01:43.914Z,60.9
2023-04-23T10:16:54.481Z,60.5
2023-04-23T10:32:04.202Z,60
2023-04-23T10:47:13.774Z,59.5
2023-04-23T11:02:25.058Z,58.8
2023-04-23T11:17:35.421Z,58.5
2023-04-23T11:32:46.059Z,58.3
2023-04-23T11:47:56.578Z,58.4
2023-04-23T12:03:07.726Z,58
2023-04-23T12:18:18.302Z,56.8
2023-04-23T12:33:28.295Z,57
2023-04-23T12:48:39.289Z,55.7
2023-04-23T13:03:50.040Z,56.3
2023-04-23T13:18:59.771Z,56.9
2023-04-23T13:34:09.287Z,57.6
2023-04-23T13:49:17.540Z,59.8
2023-04-23T14:04:27.486Z,60.3
2023-04-23T14:19:37.915Z,60.3
2023-04-23T14:34:47.469Z,60.1
2023-04-23T14:49:57.257Z,60.4
2023-04-23T15:05:08.403Z,59.9
2023-04-23T15:20:19.784Z,56.9
2023-04-23T15:35:32.157Z,53.6
2023-04-23T15:50:44.243Z,52
2023-04-23T16:05:54.663Z,51.8
2023-04-23T16:21:02.651Z,56
2023-04-23T16:36:11.809Z,58.1
2023-04-23T16:51:19.688Z,58.9
2023-04-23T17:06:29.175Z,59.8
2023-04-23T17:21:38.182Z,59.9
2023-04-23T17:36:46.898Z,60.1
2023-04-23T17:51:56.053Z,60.4
2023-04-23T18:07:04.886Z,60.6
2023-04-23T18:22:14.740Z,60.6
2023-04-23T18:37:24.270Z,61.5
2023-04-23T18:52:33.693Z,61
2023-04-23T19:07:43.142Z,61.1
2023-04-23T19:22:52.707Z,61.2
2023-04-23T19:38:02.630Z,61.2
2023-04-23T19:53:11.585Z,61.3
2023-04-23T20:08:21.197Z,61.6
2023-04-23T20:23:30.590Z,61.7
2023-04-23T20:38:40.841Z,61.9
2023-04-23T20:53:50.180Z,62.1
2023-04-23T21:08:59.920Z,62.4
2023-04-23T21:24:10.004Z,62.8
2023-04-23T21:39:19.424Z,63.3
2023-04-23T21:54:28.525Z,63.5
2023-04-23T22:09:38.976Z,63.7
2023-04-23T22:24:48.585Z,63.4
2023-04-23T22:39:57.791Z,64
2023-04-23T22:55:07.238Z,64.2
2023-04-23T23:10:16.711Z,64.7
2023-04-23T23:25:25.753Z,64.6
2023-04-23T23:40:35.162Z,64.6
2023-04-23T23:55:45.006Z,64.5
